sensor_id;sensor_type;location;lat;lon;timestamp;P1;durP1;ratioP1;P2;durP2;ratioP2
1224;SDS011;602;48.000;7.840;2023-02-21T00:00:12;0.87;;;0.87;;
1224;SDS011;602;48.000;7.840;2023-02-21T00:02:57;0.97;;;0.93;;
1224;SDS011;602;48.000;7.840;2023-02-21T00:05:41;0.50;;;0.50;;
1224;SDS011;602;48.000;7.840;2023-02-21T00:08:27;0.90;;;0.90;;
1224;SDS011;602;48.000;7.840;2023-02-21T00:11:11;1.07;;;1.03;;
1224;SDS011;602;48.000;7.840;2023-02-21T00:13:55;0.80;;;0.80;;
1224;SDS011;602;48.000;7.840;2023-02-21T00:16:40;1.03;;;0.60;;
1224;SDS011;602;48.000;7.840;2023-02-21T00:19:24;0.70;;;0.70;;
1224;SDS011;602;48.000;7.840;2023-02-21T00:22:08;0.47;;;0.47;;
1224;SDS011;602;48.000;7.840;2023-02-21T00:24:54;1.17;;;1.07;;
1224;SDS011;602;48.000;7.840;2023-02-21T00:27:38;0.57;;;0.57;;
1224;SDS011;602;48.000;7.840;2023-02-21T00:30:22;0.80;;;0.80;;
1224;SDS011;602;48.000;7.840;2023-02-21T00:33:07;8.97;;;0.80;;
1224;SDS011;602;48.000;7.840;2023-02-21T00:35:51;1.27;;;1.00;;
1224;SDS011;602;48.000;7.840;2023-02-21T00:38:35;1.37;;;0.73;;
1224;SDS011;602;48.000;7.840;2023-02-21T00:41:21;0.60;;;0.60;;
1224;SDS011;602;48.000;7.840;2023-02-21T00:44:06;0.80;;;0.53;;
1224;SDS011;602;48.000;7.840;2023-02-21T00:46:50;0.73;;;0.50;;
1224;SDS011;602;48.000;7.840;2023-02-21T00:49:34;0.73;;;0.73;;
1224;SDS011;602;48.000;7.840;2023-02-21T00:52:19;0.50;;;0.50;;
1224;SDS011;602;48.000;7.840;2023-02-21T00:55:04;1.37;;;0.83;;
1224;SDS011;602;48.000;7.840;2023-02-21T00:57:50;0.60;;;0.60;;
1224;SDS011;602;48.000;7.840;2023-02-21T01:00:34;0.50;;;0.50;;
1224;SDS011;602;48.000;7.840;2023-02-21T01:03:19;0.57;;;0.57;;
1224;SDS011;602;48.000;7.840;2023-02-21T01:06:07;4.00;;;1.60;;
1224;SDS011;602;48.000;7.840;2023-02-21T01:08:52;1.77;;;0.47;;
1224;SDS011;602;48.000;7.840;2023-02-21T01:11:36;0.80;;;0.80;;
1224;SDS011;602;48.000;7.840;2023-02-21T01:14:21;2.20;;;0.80;;
1224;SDS011;602;48.000;7.840;2023-02-21T01:17:05;0.77;;;0.77;;
1224;SDS011;602;48.000;7.840;2023-02-21T01:19:50;0.43;;;0.43;;
1224;SDS011;602;48.000;7.840;2023-02-21T01:22:34;0.50;;;0.50;;
1224;SDS011;602;48.000;7.840;2023-02-21T01:25:18;1.40;;;0.90;;
1224;SDS011;602;48.000;7.840;2023-02-21T01:28:03;2.30;;;1.17;;
1224;SDS011;602;48.000;7.840;2023-02-21T01:30:49;0.30;;;0.30;;
1224;SDS011;602;48.000;7.840;2023-02-21T01:33:34;0.83;;;0.83;;
1224;SDS011;602;48.000;7.840;2023-02-21T01:36:20;0.73;;;0.50;;
1224;SDS011;602;48.000;7.840;2023-02-21T01:39:05;0.43;;;0.43;;
1224;SDS011;602;48.000;7.840;2023-02-21T01:41:49;1.00;;;0.87;;
1224;SDS011;602;48.000;7.840;2023-02-21T01:44:35;0.87;;;0.87;;
1224;SDS011;602;48.000;7.840;2023-02-21T01:47:22;0.40;;;0.40;;
1224;SDS011;602;48.000;7.840;2023-02-21T01:50:11;0.57;;;0.57;;
1224;SDS011;602;48.000;7.840;2023-02-21T01:52:59;0.70;;;0.70;;
1224;SDS011;602;48.000;7.840;2023-02-21T01:55:45;0.83;;;0.77;;
1224;SDS011;602;48.000;7.840;2023-02-21T01:58:31;0.40;;;0.40;;
1224;SDS011;602;48.000;7.840;2023-02-21T02:01:19;1.33;;;0.70;;
1224;SDS011;602;48.000;7.840;2023-02-21T02:04:11;0.43;;;0.40;;
1224;SDS011;602;48.000;7.840;2023-02-21T02:06:56;0.73;;;0.40;;
1224;SDS011;602;48.000;7.840;2023-02-21T02:09:40;0.60;;;0.60;;
1224;SDS011;602;48.000;7.840;2023-02-21T02:15:26;0.50;;;0.40;;
1224;SDS011;602;48.000;7.840;2023-02-21T02:18:12;0.40;;;0.40;;
1224;SDS011;602;48.000;7.840;2023-02-21T02:24:26;0.90;;;0.43;;
1224;SDS011;602;48.000;7.840;2023-02-21T02:36:22;0.50;;;0.40;;
1224;SDS011;602;48.000;7.840;2023-02-21T02:38:54;0.50;;;0.50;;
1224;SDS011;602;48.000;7.840;2023-02-21T02:41:29;0.77;;;0.77;;
1224;SDS011;602;48.000;7.840;2023-02-21T02:44:09;0.80;;;0.50;;
1224;SDS011;602;48.000;7.840;2023-02-21T02:46:40;1.20;;;0.70;;
1224;SDS011;602;48.000;7.840;2023-02-21T02:49:11;1.27;;;0.80;;
1224;SDS011;602;48.000;7.840;2023-02-21T02:51:44;0.60;;;0.53;;
1224;SDS011;602;48.000;7.840;2023-02-21T02:54:11;0.83;;;0.60;;
1224;SDS011;602;48.000;7.840;2023-02-21T02:56:38;0.93;;;0.70;;
1224;SDS011;602;48.000;7.840;2023-02-21T02:59:06;0.60;;;0.60;;
1224;SDS011;602;48.000;7.840;2023-02-21T03:01:43;3.07;;;1.30;;
1224;SDS011;602;48.000;7.840;2023-02-21T03:04:41;1.10;;;1.00;;
1224;SDS011;602;48.000;7.840;2023-02-21T03:07:22;1.27;;;0.60;;
1224;SDS011;602;48.000;7.840;2023-02-21T03:10:01;0.70;;;0.60;;
1224;SDS011;602;48.000;7.840;2023-02-21T03:12:35;0.50;;;0.50;;
1224;SDS011;602;48.000;7.840;2023-02-21T03:15:07;1.43;;;1.33;;
1224;SDS011;602;48.000;7.840;2023-02-21T03:17:39;0.77;;;0.77;;
1224;SDS011;602;48.000;7.840;2023-02-21T03:20:11;0.67;;;0.67;;
1224;SDS011;602;48.000;7.840;2023-02-21T03:22:42;2.50;;;0.73;;
1224;SDS011;602;48.000;7.840;2023-02-21T03:25:11;0.63;;;0.63;;
1224;SDS011;602;48.000;7.840;2023-02-21T03:27:41;5.70;;;1.33;;
1224;SDS011;602;48.000;7.840;2023-02-21T03:30:10;0.93;;;0.87;;
1224;SDS011;602;48.000;7.840;2023-02-21T03:32:39;2.37;;;1.37;;
1224;SDS011;602;48.000;7.840;2023-02-21T03:35:12;2.00;;;0.90;;
1224;SDS011;602;48.000;7.840;2023-02-21T03:37:40;0.60;;;0.60;;
1224;SDS011;602;48.000;7.840;2023-02-21T03:40:10;0.77;;;0.77;;
1224;SDS011;602;48.000;7.840;2023-02-21T03:42:40;1.00;;;0.70;;
1224;SDS011;602;48.000;7.840;2023-02-21T03:45:07;0.47;;;0.47;;
1224;SDS011;602;48.000;7.840;2023-02-21T03:47:35;0.60;;;0.60;;
1224;SDS011;602;48.000;7.840;2023-02-21T03:50:02;0.40;;;0.40;;
1224;SDS011;602;48.000;7.840;2023-02-21T03:52:30;0.87;;;0.87;;
1224;SDS011;602;48.000;7.840;2023-02-21T03:54:58;0.50;;;0.50;;
1224;SDS011;602;48.000;7.840;2023-02-21T03:57:25;1.50;;;0.50;;
1224;SDS011;602;48.000;7.840;2023-02-21T03:59:52;0.50;;;0.50;;
1224;SDS011;602;48.000;7.840;2023-02-21T04:02:19;0.47;;;0.47;;
1224;SDS011;602;48.000;7.840;2023-02-21T04:04:46;0.70;;;0.70;;
1224;SDS011;602;48.000;7.840;2023-02-21T04:07:13;0.60;;;0.60;;
1224;SDS011;602;48.000;7.840;2023-02-21T04:09:41;1.70;;;0.57;;
1224;SDS011;602;48.000;7.840;2023-02-21T04:12:10;1.00;;;0.90;;
1224;SDS011;602;48.000;7.840;2023-02-21T04:14:37;3.13;;;0.90;;
1224;SDS011;602;48.000;7.840;2023-02-21T04:17:04;0.50;;;0.50;;
1224;SDS011;602;48.000;7.840;2023-02-21T04:19:30;2.60;;;1.60;;
1224;SDS011;602;48.000;7.840;2023-02-21T04:21:57;2.30;;;0.87;;
1224;SDS011;602;48.000;7.840;2023-02-21T04:24:24;0.47;;;0.47;;
1224;SDS011;602;48.000;7.840;2023-02-21T04:26:51;0.60;;;0.60;;
1224;SDS011;602;48.000;7.840;2023-02-21T04:29:19;1.07;;;0.90;;
1224;SDS011;602;48.000;7.840;2023-02-21T04:31:46;1.80;;;0.83;;
1224;SDS011;602;48.000;7.840;2023-02-21T04:34:13;0.87;;;0.87;;
1224;SDS011;602;48.000;7.840;2023-02-21T04:36:40;0.70;;;0.70;;
1224;SDS011;602;48.000;7.840;2023-02-21T04:39:07;0.60;;;0.60;;
1224;SDS011;602;48.000;7.840;2023-02-21T04:41:34;0.40;;;0.40;;
1224;SDS011;602;48.000;7.840;2023-02-21T04:44:02;2.83;;;1.37;;
1224;SDS011;602;48.000;7.840;2023-02-21T04:46:31;2.00;;;1.37;;
1224;SDS011;602;48.000;7.840;2023-02-21T04:48:58;0.90;;;0.50;;
1224;SDS011;602;48.000;7.840;2023-02-21T04:51:25;0.70;;;0.70;;
1224;SDS011;602;48.000;7.840;2023-02-21T04:53:52;0.57;;;0.57;;
1224;SDS011;602;48.000;7.840;2023-02-21T04:56:20;0.90;;;0.47;;
1224;SDS011;602;48.000;7.840;2023-02-21T04:58:49;0.73;;;0.73;;
1224;SDS011;602;48.000;7.840;2023-02-21T05:01:16;0.80;;;0.50;;
1224;SDS011;602;48.000;7.840;2023-02-21T05:03:46;0.97;;;0.87;;
1224;SDS011;602;48.000;7.840;2023-02-21T05:06:17;0.90;;;0.77;;
1224;SDS011;602;48.000;7.840;2023-02-21T05:08:44;0.63;;;0.63;;
1224;SDS011;602;48.000;7.840;2023-02-21T05:11:11;0.83;;;0.83;;
1224;SDS011;602;48.000;7.840;2023-02-21T05:13:38;0.60;;;0.60;;
1224;SDS011;602;48.000;7.840;2023-02-21T05:16:05;1.13;;;0.70;;
1224;SDS011;602;48.000;7.840;2023-02-21T05:18:32;6.53;;;1.80;;
1224;SDS011;602;48.000;7.840;2023-02-21T05:21:03;0.57;;;0.53;;
1224;SDS011;602;48.000;7.840;2023-02-21T05:23:31;0.77;;;0.73;;
1224;SDS011;602;48.000;7.840;2023-02-21T05:26:04;1.60;;;1.03;;
1224;SDS011;602;48.000;7.840;2023-02-21T05:28:34;1.00;;;0.80;;
1224;SDS011;602;48.000;7.840;2023-02-21T05:31:02;0.60;;;0.60;;
1224;SDS011;602;48.000;7.840;2023-02-21T05:33:29;0.80;;;0.73;;
1224;SDS011;602;48.000;7.840;2023-02-21T05:35:56;0.77;;;0.77;;
1224;SDS011;602;48.000;7.840;2023-02-21T05:38:25;0.60;;;0.60;;
1224;SDS011;602;48.000;7.840;2023-02-21T05:40:52;0.70;;;0.70;;
1224;SDS011;602;48.000;7.840;2023-02-21T05:43:19;0.90;;;0.73;;
1224;SDS011;602;48.000;7.840;2023-02-21T05:45:46;3.00;;;1.73;;
1224;SDS011;602;48.000;7.840;2023-02-21T05:48:13;0.93;;;0.70;;
1224;SDS011;602;48.000;7.840;2023-02-21T05:50:40;1.17;;;1.07;;
1224;SDS011;602;48.000;7.840;2023-02-21T05:53:09;1.13;;;1.03;;
1224;SDS011;602;48.000;7.840;2023-02-21T05:55:37;1.03;;;0.90;;
1224;SDS011;602;48.000;7.840;2023-02-21T05:58:03;0.70;;;0.70;;
1224;SDS011;602;48.000;7.840;2023-02-21T06:00:30;1.93;;;1.73;;
1224;SDS011;602;48.000;7.840;2023-02-21T06:02:57;1.57;;;1.20;;
1224;SDS011;602;48.000;7.840;2023-02-21T06:05:24;2.33;;;1.23;;
1224;SDS011;602;48.000;7.840;2023-02-21T06:07:51;0.80;;;0.80;;
1224;SDS011;602;48.000;7.840;2023-02-21T06:10:18;2.30;;;1.30;;
1224;SDS011;602;48.000;7.840;2023-02-21T06:12:46;0.97;;;0.97;;
1224;SDS011;602;48.000;7.840;2023-02-21T06:15:13;1.80;;;1.23;;
1224;SDS011;602;48.000;7.840;2023-02-21T06:17:41;0.73;;;0.73;;
1224;SDS011;602;48.000;7.840;2023-02-21T06:20:09;0.70;;;0.70;;
1224;SDS011;602;48.000;7.840;2023-02-21T06:22:38;0.60;;;0.60;;
1224;SDS011;602;48.000;7.840;2023-02-21T06:25:05;0.70;;;0.70;;
1224;SDS011;602;48.000;7.840;2023-02-21T06:27:33;1.83;;;1.63;;
1224;SDS011;602;48.000;7.840;2023-02-21T06:30:01;1.10;;;1.10;;
1224;SDS011;602;48.000;7.840;2023-02-21T06:32:28;1.43;;;1.10;;
1224;SDS011;602;48.000;7.840;2023-02-21T06:34:55;0.60;;;0.60;;
1224;SDS011;602;48.000;7.840;2023-02-21T06:37:22;1.80;;;1.10;;
1224;SDS011;602;48.000;7.840;2023-02-21T06:39:49;1.77;;;1.03;;
1224;SDS011;602;48.000;7.840;2023-02-21T06:42:16;0.90;;;0.90;;
1224;SDS011;602;48.000;7.840;2023-02-21T06:44:43;1.67;;;1.57;;
1224;SDS011;602;48.000;7.840;2023-02-21T06:47:11;1.57;;;1.20;;
1224;SDS011;602;48.000;7.840;2023-02-21T06:49:39;3.27;;;1.50;;
1224;SDS011;602;48.000;7.840;2023-02-21T06:52:06;1.23;;;0.90;;
1224;SDS011;602;48.000;7.840;2023-02-21T06:54:34;1.53;;;1.43;;
1224;SDS011;602;48.000;7.840;2023-02-21T06:57:02;1.57;;;0.93;;
1224;SDS011;602;48.000;7.840;2023-02-21T06:59:29;0.60;;;0.60;;
1224;SDS011;602;48.000;7.840;2023-02-21T07:01:56;1.00;;;1.00;;
1224;SDS011;602;48.000;7.840;2023-02-21T07:04:24;1.33;;;1.10;;
1224;SDS011;602;48.000;7.840;2023-02-21T07:06:51;0.80;;;0.80;;
1224;SDS011;602;48.000;7.840;2023-02-21T07:09:18;1.40;;;1.30;;
1224;SDS011;602;48.000;7.840;2023-02-21T07:11:45;0.70;;;0.70;;
1224;SDS011;602;48.000;7.840;2023-02-21T07:14:12;0.80;;;0.80;;
1224;SDS011;602;48.000;7.840;2023-02-21T07:16:39;0.77;;;0.77;;
1224;SDS011;602;48.000;7.840;2023-02-21T07:19:06;1.90;;;0.60;;
1224;SDS011;602;48.000;7.840;2023-02-21T07:21:34;0.50;;;0.50;;
1224;SDS011;602;48.000;7.840;2023-02-21T07:24:01;1.37;;;1.10;;
1224;SDS011;602;48.000;7.840;2023-02-21T07:26:28;8.23;;;1.20;;
1224;SDS011;602;48.000;7.840;2023-02-21T07:28:55;0.90;;;0.90;;
1224;SDS011;602;48.000;7.840;2023-02-21T07:31:21;1.30;;;1.00;;
1224;SDS011;602;48.000;7.840;2023-02-21T07:33:48;1.53;;;0.97;;
1224;SDS011;602;48.000;7.840;2023-02-21T07:36:15;0.60;;;0.60;;
1224;SDS011;602;48.000;7.840;2023-02-21T07:38:43;1.90;;;0.77;;
1224;SDS011;602;48.000;7.840;2023-02-21T07:41:10;0.87;;;0.87;;
1224;SDS011;602;48.000;7.840;2023-02-21T07:43:39;0.80;;;0.80;;
1224;SDS011;602;48.000;7.840;2023-02-21T07:46:08;0.70;;;0.70;;
1224;SDS011;602;48.000;7.840;2023-02-21T07:48:36;1.03;;;0.80;;
1224;SDS011;602;48.000;7.840;2023-02-21T07:51:03;1.07;;;1.03;;
1224;SDS011;602;48.000;7.840;2023-02-21T07:53:31;1.47;;;1.10;;
1224;SDS011;602;48.000;7.840;2023-02-21T07:55:59;1.23;;;1.13;;
1224;SDS011;602;48.000;7.840;2023-02-21T07:58:26;1.23;;;1.13;;
1224;SDS011;602;48.000;7.840;2023-02-21T08:00:53;0.77;;;0.77;;
1224;SDS011;602;48.000;7.840;2023-02-21T08:03:20;2.43;;;1.50;;
1224;SDS011;602;48.000;7.840;2023-02-21T08:05:47;1.27;;;1.00;;
1224;SDS011;602;48.000;7.840;2023-02-21T08:08:15;1.40;;;1.27;;
1224;SDS011;602;48.000;7.840;2023-02-21T08:10:42;1.03;;;0.97;;
1224;SDS011;602;48.000;7.840;2023-02-21T08:13:10;0.93;;;0.93;;
1224;SDS011;602;48.000;7.840;2023-02-21T08:15:37;3.13;;;1.57;;
1224;SDS011;602;48.000;7.840;2023-02-21T08:18:04;2.30;;;1.60;;
1224;SDS011;602;48.000;7.840;2023-02-21T08:20:31;1.67;;;1.50;;
1224;SDS011;602;48.000;7.840;2023-02-21T08:22:59;5.73;;;2.03;;
1224;SDS011;602;48.000;7.840;2023-02-21T08:25:26;1.63;;;1.53;;
1224;SDS011;602;48.000;7.840;2023-02-21T08:27:52;5.10;;;2.40;;
1224;SDS011;602;48.000;7.840;2023-02-21T08:30:21;1.20;;;1.20;;
1224;SDS011;602;48.000;7.840;2023-02-21T08:32:49;2.73;;;2.03;;
1224;SDS011;602;48.000;7.840;2023-02-21T08:35:16;2.93;;;1.90;;
1224;SDS011;602;48.000;7.840;2023-02-21T08:37:44;1.87;;;1.77;;
1224;SDS011;602;48.000;7.840;2023-02-21T08:40:12;5.30;;;2.20;;
1224;SDS011;602;48.000;7.840;2023-02-21T08:42:40;1.63;;;1.53;;
1224;SDS011;602;48.000;7.840;2023-02-21T08:45:07;1.43;;;1.27;;
1224;SDS011;602;48.000;7.840;2023-02-21T08:47:41;1.30;;;1.20;;
1224;SDS011;602;48.000;7.840;2023-02-21T08:50:08;1.53;;;1.33;;
1224;SDS011;602;48.000;7.840;2023-02-21T08:52:35;1.30;;;1.20;;
1224;SDS011;602;48.000;7.840;2023-02-21T08:55:03;1.83;;;1.40;;
1224;SDS011;602;48.000;7.840;2023-02-21T08:57:30;3.97;;;1.77;;
1224;SDS011;602;48.000;7.840;2023-02-21T08:59:58;4.70;;;1.37;;
1224;SDS011;602;48.000;7.840;2023-02-21T09:02:25;2.77;;;1.60;;
1224;SDS011;602;48.000;7.840;2023-02-21T09:04:54;5.30;;;2.10;;
1224;SDS011;602;48.000;7.840;2023-02-21T09:07:21;2.60;;;1.70;;
1224;SDS011;602;48.000;7.840;2023-02-21T09:09:48;2.70;;;1.40;;
1224;SDS011;602;48.000;7.840;2023-02-21T09:12:15;2.07;;;1.83;;
1224;SDS011;602;48.000;7.840;2023-02-21T09:14:42;2.47;;;2.27;;
1224;SDS011;602;48.000;7.840;2023-02-21T09:17:10;2.73;;;2.13;;
1224;SDS011;602;48.000;7.840;2023-02-21T09:19:38;2.37;;;2.17;;
1224;SDS011;602;48.000;7.840;2023-02-21T09:22:07;3.80;;;2.10;;
1224;SDS011;602;48.000;7.840;2023-02-21T09:24:35;2.50;;;2.30;;
1224;SDS011;602;48.000;7.840;2023-02-21T09:27:02;3.60;;;2.80;;
1224;SDS011;602;48.000;7.840;2023-02-21T09:29:30;2.43;;;1.90;;
1224;SDS011;602;48.000;7.840;2023-02-21T09:31:57;2.70;;;2.50;;
1224;SDS011;602;48.000;7.840;2023-02-21T09:34:25;2.40;;;2.13;;
1224;SDS011;602;48.000;7.840;2023-02-21T09:36:52;3.17;;;2.60;;
1224;SDS011;602;48.000;7.840;2023-02-21T09:39:21;2.70;;;2.50;;
1224;SDS011;602;48.000;7.840;2023-02-21T09:41:49;3.50;;;3.20;;
1224;SDS011;602;48.000;7.840;2023-02-21T09:44:20;4.40;;;3.00;;
1224;SDS011;602;48.000;7.840;2023-02-21T09:46:51;2.97;;;2.53;;
1224;SDS011;602;48.000;7.840;2023-02-21T09:49:23;6.33;;;4.13;;
1224;SDS011;602;48.000;7.840;2023-02-21T09:51:54;3.33;;;2.90;;
1224;SDS011;602;48.000;7.840;2023-02-21T09:54:24;7.00;;;3.33;;
1224;SDS011;602;48.000;7.840;2023-02-21T09:56:56;3.77;;;3.47;;
1224;SDS011;602;48.000;7.840;2023-02-21T09:59:25;4.73;;;3.23;;
1224;SDS011;602;48.000;7.840;2023-02-21T10:01:57;3.00;;;2.70;;
1224;SDS011;602;48.000;7.840;2023-02-21T10:04:37;4.13;;;3.20;;
1224;SDS011;602;48.000;7.840;2023-02-21T10:07:20;2.60;;;2.30;;
1224;SDS011;602;48.000;7.840;2023-02-21T10:09:54;3.37;;;2.53;;
1224;SDS011;602;48.000;7.840;2023-02-21T10:12:27;3.70;;;3.30;;
1224;SDS011;602;48.000;7.840;2023-02-21T10:15:02;3.13;;;2.77;;
1224;SDS011;602;48.000;7.840;2023-02-21T10:17:42;3.50;;;2.93;;
1224;SDS011;602;48.000;7.840;2023-02-21T10:20:18;2.93;;;2.73;;
1224;SDS011;602;48.000;7.840;2023-02-21T10:22:52;4.27;;;3.30;;
1224;SDS011;602;48.000;7.840;2023-02-21T10:25:24;2.33;;;2.13;;
1224;SDS011;602;48.000;7.840;2023-02-21T10:27:53;4.50;;;2.77;;
1224;SDS011;602;48.000;7.840;2023-02-21T10:30:23;2.50;;;1.70;;
1224;SDS011;602;48.000;7.840;2023-02-21T10:32:54;3.97;;;1.90;;
1224;SDS011;602;48.000;7.840;2023-02-21T10:35:21;2.17;;;1.97;;
1224;SDS011;602;48.000;7.840;2023-02-21T10:37:50;3.17;;;2.20;;
1224;SDS011;602;48.000;7.840;2023-02-21T10:40:24;3.47;;;2.97;;
1224;SDS011;602;48.000;7.840;2023-02-21T10:42:55;2.50;;;2.17;;
1224;SDS011;602;48.000;7.840;2023-02-21T10:45:33;2.90;;;2.23;;
1224;SDS011;602;48.000;7.840;2023-02-21T10:48:05;3.00;;;2.40;;
1224;SDS011;602;48.000;7.840;2023-02-21T10:50:40;8.23;;;2.50;;
1224;SDS011;602;48.000;7.840;2023-02-21T10:53:21;2.30;;;2.00;;
1224;SDS011;602;48.000;7.840;2023-02-21T10:56:08;3.27;;;1.97;;
1224;SDS011;602;48.000;7.840;2023-02-21T10:58:47;8.93;;;2.80;;
1224;SDS011;602;48.000;7.840;2023-02-21T11:01:16;2.50;;;2.30;;
1224;SDS011;602;48.000;7.840;2023-02-21T11:03:46;6.13;;;2.40;;
1224;SDS011;602;48.000;7.840;2023-02-21T11:06:23;3.60;;;1.90;;
1224;SDS011;602;48.000;7.840;2023-02-21T11:08:56;2.07;;;1.87;;
1224;SDS011;602;48.000;7.840;2023-02-21T11:11:33;5.13;;;2.80;;
1224;SDS011;602;48.000;7.840;2023-02-21T11:14:18;4.73;;;3.20;;
1224;SDS011;602;48.000;7.840;2023-02-21T11:17:04;3.33;;;2.93;;
1224;SDS011;602;48.000;7.840;2023-02-21T11:19:40;2.20;;;2.00;;
1224;SDS011;602;48.000;7.840;2023-02-21T11:22:12;2.20;;;2.10;;
1224;SDS011;602;48.000;7.840;2023-02-21T11:24:44;2.17;;;1.90;;
1224;SDS011;602;48.000;7.840;2023-02-21T11:27:16;2.60;;;2.03;;
1224;SDS011;602;48.000;7.840;2023-02-21T11:29:43;3.30;;;2.60;;
1224;SDS011;602;48.000;7.840;2023-02-21T11:32:19;1.57;;;1.47;;
1224;SDS011;602;48.000;7.840;2023-02-21T11:34:59;1.80;;;1.60;;
1224;SDS011;602;48.000;7.840;2023-02-21T11:37:27;2.53;;;2.20;;
1224;SDS011;602;48.000;7.840;2023-02-21T11:39:56;4.50;;;2.57;;
1224;SDS011;602;48.000;7.840;2023-02-21T11:42:27;1.87;;;1.63;;
1224;SDS011;602;48.000;7.840;2023-02-21T11:45:12;1.87;;;1.77;;
1224;SDS011;602;48.000;7.840;2023-02-21T11:47:50;3.10;;;2.00;;
1224;SDS011;602;48.000;7.840;2023-02-21T11:50:22;2.57;;;1.70;;
1224;SDS011;602;48.000;7.840;2023-02-21T11:52:52;2.37;;;2.10;;
1224;SDS011;602;48.000;7.840;2023-02-21T11:55:24;5.20;;;2.17;;
1224;SDS011;602;48.000;7.840;2023-02-21T11:57:57;5.00;;;2.50;;
1224;SDS011;602;48.000;7.840;2023-02-21T12:00:35;3.50;;;1.97;;
1224;SDS011;602;48.000;7.840;2023-02-21T12:03:12;2.50;;;2.30;;
1224;SDS011;602;48.000;7.840;2023-02-21T12:05:56;3.97;;;2.30;;
1224;SDS011;602;48.000;7.840;2023-02-21T12:08:35;2.67;;;2.20;;
1224;SDS011;602;48.000;7.840;2023-02-21T12:11:28;2.03;;;1.87;;
1224;SDS011;602;48.000;7.840;2023-02-21T12:14:13;1.63;;;1.53;;
1224;SDS011;602;48.000;7.840;2023-02-21T12:16:50;1.43;;;1.33;;
1224;SDS011;602;48.000;7.840;2023-02-21T12:19:29;2.07;;;1.97;;
1224;SDS011;602;48.000;7.840;2023-02-21T12:22:07;3.43;;;1.73;;
1224;SDS011;602;48.000;7.840;2023-02-21T12:24:44;1.50;;;1.40;;
1224;SDS011;602;48.000;7.840;2023-02-21T12:27:26;2.50;;;1.80;;
1224;SDS011;602;48.000;7.840;2023-02-21T12:30:13;2.37;;;1.30;;
1224;SDS011;602;48.000;7.840;2023-02-21T12:33:02;1.60;;;1.50;;
1224;SDS011;602;48.000;7.840;2023-02-21T12:35:46;2.43;;;1.70;;
1224;SDS011;602;48.000;7.840;2023-02-21T12:38:38;1.40;;;1.30;;
1224;SDS011;602;48.000;7.840;2023-02-21T12:41:23;1.63;;;1.53;;
1224;SDS011;602;48.000;7.840;2023-02-21T12:44:02;1.67;;;1.57;;
1224;SDS011;602;48.000;7.840;2023-02-21T12:46:39;1.73;;;1.30;;
1224;SDS011;602;48.000;7.840;2023-02-21T12:49:11;1.73;;;1.40;;
1224;SDS011;602;48.000;7.840;2023-02-21T12:51:44;3.03;;;1.23;;
1224;SDS011;602;48.000;7.840;2023-02-21T12:54:16;1.27;;;1.20;;
1224;SDS011;602;48.000;7.840;2023-02-21T12:56:46;1.57;;;1.40;;
1224;SDS011;602;48.000;7.840;2023-02-21T12:59:19;2.10;;;1.53;;
1224;SDS011;602;48.000;7.840;2023-02-21T13:01:51;1.27;;;1.20;;
1224;SDS011;602;48.000;7.840;2023-02-21T13:04:23;1.40;;;1.30;;
1224;SDS011;602;48.000;7.840;2023-02-21T13:06:59;1.03;;;0.93;;
1224;SDS011;602;48.000;7.840;2023-02-21T13:09:33;1.57;;;1.13;;
1224;SDS011;602;48.000;7.840;2023-02-21T13:12:03;2.60;;;1.80;;
1224;SDS011;602;48.000;7.840;2023-02-21T13:14:34;1.53;;;1.43;;
1224;SDS011;602;48.000;7.840;2023-02-21T13:17:09;2.30;;;1.63;;
1224;SDS011;602;48.000;7.840;2023-02-21T13:19:40;4.93;;;2.07;;
1224;SDS011;602;48.000;7.840;2023-02-21T13:25:35;2.57;;;1.67;;
1224;SDS011;602;48.000;7.840;2023-02-21T13:28:17;1.33;;;1.20;;
1224;SDS011;602;48.000;7.840;2023-02-21T13:30:49;2.50;;;1.53;;
1224;SDS011;602;48.000;7.840;2023-02-21T13:33:24;6.40;;;1.90;;
1224;SDS011;602;48.000;7.840;2023-02-21T13:35:55;2.60;;;1.53;;
1224;SDS011;602;48.000;7.840;2023-02-21T13:38:25;2.87;;;1.77;;
1224;SDS011;602;48.000;7.840;2023-02-21T13:41:02;2.20;;;1.30;;
1224;SDS011;602;48.000;7.840;2023-02-21T13:43:34;2.93;;;1.43;;
1224;SDS011;602;48.000;7.840;2023-02-21T13:46:22;1.40;;;1.30;;
1224;SDS011;602;48.000;7.840;2023-02-21T13:51:52;1.67;;;1.57;;
1224;SDS011;602;48.000;7.840;2023-02-21T13:54:36;1.47;;;1.37;;
1224;SDS011;602;48.000;7.840;2023-02-21T13:57:34;1.33;;;1.23;;
1224;SDS011;602;48.000;7.840;2023-02-21T14:09:14;1.20;;;1.10;;
1224;SDS011;602;48.000;7.840;2023-02-21T14:11:44;2.80;;;1.53;;
1224;SDS011;602;48.000;7.840;2023-02-21T14:14:19;1.60;;;1.50;;
1224;SDS011;602;48.000;7.840;2023-02-21T14:16:50;2.13;;;1.60;;
1224;SDS011;602;48.000;7.840;2023-02-21T14:19:23;1.90;;;1.17;;
1224;SDS011;602;48.000;7.840;2023-02-21T14:21:56;1.17;;;1.00;;
1224;SDS011;602;48.000;7.840;2023-02-21T14:24:29;2.17;;;1.87;;
1224;SDS011;602;48.000;7.840;2023-02-21T14:27:01;1.87;;;1.40;;
1224;SDS011;602;48.000;7.840;2023-02-21T14:29:31;2.50;;;1.20;;
1224;SDS011;602;48.000;7.840;2023-02-21T14:32:22;1.40;;;1.30;;
1224;SDS011;602;48.000;7.840;2023-02-21T14:34:56;1.30;;;1.20;;
1224;SDS011;602;48.000;7.840;2023-02-21T14:37:27;1.40;;;1.30;;
1224;SDS011;602;48.000;7.840;2023-02-21T14:40:00;1.57;;;1.40;;
1224;SDS011;602;48.000;7.840;2023-02-21T14:42:45;1.40;;;1.30;;
1224;SDS011;602;48.000;7.840;2023-02-21T14:45:28;2.27;;;1.57;;
1224;SDS011;602;48.000;7.840;2023-02-21T14:48:18;1.63;;;1.50;;
1224;SDS011;602;48.000;7.840;2023-02-21T14:51:08;1.70;;;1.60;;
1224;SDS011;602;48.000;7.840;2023-02-21T14:54:09;1.60;;;1.50;;
1224;SDS011;602;48.000;7.840;2023-02-21T14:56:59;3.67;;;1.77;;
1224;SDS011;602;48.000;7.840;2023-02-21T14:59:44;1.37;;;1.23;;
1224;SDS011;602;48.000;7.840;2023-02-21T15:02:23;4.20;;;1.67;;
1224;SDS011;602;48.000;7.840;2023-02-21T15:04:56;2.40;;;1.37;;
1224;SDS011;602;48.000;7.840;2023-02-21T15:07:30;1.80;;;1.70;;
1224;SDS011;602;48.000;7.840;2023-02-21T15:10:14;2.10;;;1.83;;
1224;SDS011;602;48.000;7.840;2023-02-21T15:12:48;2.20;;;1.40;;
1224;SDS011;602;48.000;7.840;2023-02-21T15:15:18;2.27;;;2.00;;
1224;SDS011;602;48.000;7.840;2023-02-21T15:17:54;1.83;;;1.73;;
1224;SDS011;602;48.000;7.840;2023-02-21T15:20:25;1.73;;;1.63;;
1224;SDS011;602;48.000;7.840;2023-02-21T15:22:54;2.23;;;1.77;;
1224;SDS011;602;48.000;7.840;2023-02-21T15:25:23;1.20;;;1.20;;
1224;SDS011;602;48.000;7.840;2023-02-21T15:27:58;3.60;;;1.77;;
1224;SDS011;602;48.000;7.840;2023-02-21T15:30:31;1.20;;;1.10;;
1224;SDS011;602;48.000;7.840;2023-02-21T15:33:10;1.10;;;1.10;;
1224;SDS011;602;48.000;7.840;2023-02-21T15:35:43;1.53;;;1.40;;
1224;SDS011;602;48.000;7.840;2023-02-21T15:38:14;1.70;;;1.53;;
1224;SDS011;602;48.000;7.840;2023-02-21T15:40:45;1.90;;;1.70;;
1224;SDS011;602;48.000;7.840;2023-02-21T15:43:20;1.80;;;1.70;;
1224;SDS011;602;48.000;7.840;2023-02-21T15:45:51;2.83;;;1.20;;
1224;SDS011;602;48.000;7.840;2023-02-21T15:48:21;2.43;;;1.97;;
1224;SDS011;602;48.000;7.840;2023-02-21T15:50:48;6.97;;;1.40;;
1224;SDS011;602;48.000;7.840;2023-02-21T15:53:17;1.10;;;1.00;;
1224;SDS011;602;48.000;7.840;2023-02-21T15:55:44;2.33;;;1.40;;
1224;SDS011;602;48.000;7.840;2023-02-21T15:58:14;1.20;;;1.10;;
1224;SDS011;602;48.000;7.840;2023-02-21T16:00:45;0.93;;;0.83;;
1224;SDS011;602;48.000;7.840;2023-02-21T16:03:29;1.20;;;1.10;;
1224;SDS011;602;48.000;7.840;2023-02-21T16:06:08;1.13;;;0.93;;
1224;SDS011;602;48.000;7.840;2023-02-21T16:08:49;0.80;;;0.80;;
1224;SDS011;602;48.000;7.840;2023-02-21T16:11:24;0.77;;;0.77;;
1224;SDS011;602;48.000;7.840;2023-02-21T16:13:54;5.03;;;1.00;;
1224;SDS011;602;48.000;7.840;2023-02-21T16:16:21;1.30;;;1.10;;
1224;SDS011;602;48.000;7.840;2023-02-21T16:18:53;1.37;;;1.07;;
1224;SDS011;602;48.000;7.840;2023-02-21T16:21:24;1.33;;;0.90;;
1224;SDS011;602;48.000;7.840;2023-02-21T16:23:54;2.20;;;1.40;;
1224;SDS011;602;48.000;7.840;2023-02-21T16:26:22;1.13;;;1.00;;
1224;SDS011;602;48.000;7.840;2023-02-21T16:28:54;1.10;;;1.10;;
1224;SDS011;602;48.000;7.840;2023-02-21T16:31:24;2.10;;;1.30;;
1224;SDS011;602;48.000;7.840;2023-02-21T16:33:52;2.17;;;1.20;;
1224;SDS011;602;48.000;7.840;2023-02-21T16:36:21;1.27;;;1.17;;
1224;SDS011;602;48.000;7.840;2023-02-21T16:38:49;1.00;;;1.00;;